AAL1820 KLAX-KPHX
Flight info
| Callsign | AAL1820 |
|---|---|
| Flight time | N/A |
| Altitude | 35000 |
| Route | DOTSS2 CNERY BLH HYDRR1 |
| Aircraft | A321/M-VGDW/C |
Departure
| Time | 2026-05-04 01:57 |
|---|---|
| Airport | Los Angeles International Airport (KLAX) |
Arrival
| Time | N/A |
|---|---|
| Airport | Phoenix Sky Harbor International Airport (KPHX) |
| Time | Latitude | Longitude | Altitude | Speed | Heading |
|---|---|---|---|---|---|
| 2026-05-04 01:16 | 33.94045 | -118.40743 | 126 ft | 0 kts | 80° |
| 2026-05-04 01:43 | 33.94043 | -118.40757 | 121 ft | 2 kts | 82° |
| 2026-05-04 01:44 | 33.94041 | -118.40777 | 124 ft | 2 kts | 86° |
| 2026-05-04 01:44 | 33.94040 | -118.40797 | 121 ft | 2 kts | 95° |
| 2026-05-04 01:44 | 33.94043 | -118.40817 | 121 ft | 2 kts | 128° |
| 2026-05-04 01:44 | 33.94055 | -118.40828 | 121 ft | 2 kts | 169° |
| 2026-05-04 01:45 | 33.94060 | -118.40829 | 121 ft | 0 kts | 171° |
| 2026-05-04 01:48 | 33.94049 | -118.40827 | 122 ft | 5 kts | 171° |
| 2026-05-04 01:48 | 33.94002 | -118.40818 | 124 ft | 9 kts | 173° |
| 2026-05-04 01:48 | 33.93923 | -118.40806 | 124 ft | 10 kts | 165° |
| 2026-05-04 01:48 | 33.93866 | -118.40753 | 123 ft | 11 kts | 140° |
| 2026-05-04 01:49 | 33.93816 | -118.40690 | 124 ft | 11 kts | 108° |
| 2026-05-04 01:49 | 33.93819 | -118.40586 | 124 ft | 16 kts | 83° |
| 2026-05-04 01:49 | 33.93835 | -118.40430 | 124 ft | 19 kts | 83° |
| 2026-05-04 01:49 | 33.93852 | -118.40268 | 126 ft | 20 kts | 83° |
| 2026-05-04 01:50 | 33.93869 | -118.40104 | 124 ft | 20 kts | 83° |
| 2026-05-04 01:50 | 33.93886 | -118.39931 | 126 ft | 21 kts | 83° |
| 2026-05-04 01:50 | 33.93903 | -118.39759 | 126 ft | 21 kts | 83° |
| 2026-05-04 01:50 | 33.93921 | -118.39584 | 126 ft | 18 kts | 82° |
| 2026-05-04 01:51 | 33.93935 | -118.39453 | 124 ft | 15 kts | 83° |
| 2026-05-04 01:51 | 33.93947 | -118.39329 | 126 ft | 15 kts | 83° |
| 2026-05-04 01:51 | 33.93959 | -118.39200 | 125 ft | 16 kts | 83° |
| 2026-05-04 01:51 | 33.93973 | -118.39066 | 126 ft | 16 kts | 82° |
| 2026-05-04 01:52 | 33.93988 | -118.38928 | 126 ft | 17 kts | 82° |
| 2026-05-04 01:52 | 33.94004 | -118.38784 | 124 ft | 18 kts | 82° |
| 2026-05-04 01:52 | 33.94019 | -118.38636 | 126 ft | 18 kts | 83° |
| 2026-05-04 01:52 | 33.94035 | -118.38482 | 126 ft | 19 kts | 83° |
| 2026-05-04 01:53 | 33.94050 | -118.38324 | 125 ft | 19 kts | 83° |
| 2026-05-04 01:53 | 33.94066 | -118.38164 | 125 ft | 18 kts | 83° |
| 2026-05-04 01:53 | 33.94077 | -118.38052 | 125 ft | 10 kts | 86° |
| 2026-05-04 01:53 | 33.94074 | -118.38032 | 125 ft | 0 kts | 103° |
| 2026-05-04 01:54 | 33.94070 | -118.38024 | 125 ft | 4 kts | 120° |
| 2026-05-04 01:54 | 33.94027 | -118.37997 | 124 ft | 9 kts | 159° |
| 2026-05-04 01:55 | 33.93987 | -118.38017 | 122 ft | 6 kts | 251° |
| 2026-05-04 01:55 | 33.93979 | -118.38074 | 126 ft | 7 kts | 263° |
| 2026-05-04 01:55 | 33.93973 | -118.38139 | 126 ft | 4 kts | 263° |
| 2026-05-04 01:55 | 33.93973 | -118.38140 | 126 ft | 0 kts | 263° |
| 2026-05-04 01:56 | 33.93970 | -118.38166 | 126 ft | 20 kts | 263° |
| 2026-05-04 01:56 | 33.93921 | -118.38628 | 124 ft | 89 kts | 263° |
| 2026-05-04 01:56 | 33.93820 | -118.39607 | 125 ft | 144 kts | 263° |
| 2026-05-04 01:57 | 33.93684 | -118.40938 | 356 ft | 167 kts | 262° |
| 2026-05-04 01:57 | 33.93551 | -118.42341 | 961 ft | 171 kts | 263° |
| 2026-05-04 01:57 | 33.93417 | -118.43747 | 1702 ft | 171 kts | 262° |
| 2026-05-04 01:57 | 33.93242 | -118.45192 | 2190 ft | 182 kts | 256° |
| 2026-05-04 01:58 | 33.92680 | -118.46645 | 2372 ft | 204 kts | 235° |
| 2026-05-04 01:58 | 33.91745 | -118.48056 | 2526 ft | 226 kts | 233° |
| 2026-05-04 01:58 | 33.90742 | -118.49568 | 2973 ft | 236 kts | 233° |
| 2026-05-04 01:58 | 33.89659 | -118.51143 | 3440 ft | 250 kts | 231° |
| 2026-05-04 01:59 | 33.88522 | -118.52759 | 4146 ft | 255 kts | 231° |
| 2026-05-04 01:59 | 33.87317 | -118.54348 | 4883 ft | 260 kts | 221° |
| 2026-05-04 01:59 | 33.85747 | -118.55453 | 5579 ft | 267 kts | 201° |
| 2026-05-04 01:59 | 33.83896 | -118.55816 | 6279 ft | 275 kts | 180° |
| 2026-05-04 02:00 | 33.81982 | -118.55426 | 6822 ft | 283 kts | 170° |
| 2026-05-04 02:00 | 33.80063 | -118.54902 | 6970 ft | 282 kts | 170° |
| 2026-05-04 02:00 | 33.78154 | -118.54378 | 7009 ft | 281 kts | 170° |
| 2026-05-04 02:00 | 33.76246 | -118.53857 | 7007 ft | 281 kts | 170° |
| 2026-05-04 02:01 | 33.74344 | -118.53337 | 7014 ft | 280 kts | 170° |
| 2026-05-04 02:01 | 33.72452 | -118.52756 | 7012 ft | 282 kts | 162° |
| 2026-05-04 02:01 | 33.70723 | -118.51623 | 7018 ft | 287 kts | 144° |
| 2026-05-04 02:01 | 33.69336 | -118.49895 | 7010 ft | 290 kts | 126° |
| 2026-05-04 02:02 | 33.68420 | -118.47727 | 7018 ft | 293 kts | 110° |
| 2026-05-04 02:02 | 33.67752 | -118.45445 | 7014 ft | 294 kts | 111° |
| 2026-05-04 02:02 | 33.67067 | -118.43128 | 7117 ft | 298 kts | 111° |
| 2026-05-04 02:02 | 33.66374 | -118.40792 | 7876 ft | 297 kts | 111° |
| 2026-05-04 02:03 | 33.65682 | -118.38454 | 8620 ft | 298 kts | 111° |
| 2026-05-04 02:03 | 33.64996 | -118.36093 | 9362 ft | 301 kts | 109° |
| 2026-05-04 02:03 | 33.64548 | -118.33623 | 10053 ft | 306 kts | 99° |
| 2026-05-04 02:03 | 33.64435 | -118.31023 | 10417 ft | 323 kts | 92° |
| 2026-05-04 02:04 | 33.64438 | -118.28240 | 10546 ft | 344 kts | 92° |
| 2026-05-04 02:04 | 33.64445 | -118.25291 | 10804 ft | 360 kts | 92° |
| 2026-05-04 02:04 | 33.64454 | -118.22266 | 11320 ft | 365 kts | 92° |
| 2026-05-04 02:04 | 33.64463 | -118.19206 | 11921 ft | 369 kts | 92° |
| 2026-05-04 02:05 | 33.64469 | -118.16111 | 12511 ft | 372 kts | 92° |
| 2026-05-04 02:05 | 33.64469 | -118.12996 | 13100 ft | 376 kts | 93° |
| 2026-05-04 02:05 | 33.64465 | -118.09847 | 13696 ft | 379 kts | 93° |
| 2026-05-04 02:05 | 33.64460 | -118.06658 | 14207 ft | 384 kts | 93° |
| 2026-05-04 02:06 | 33.64454 | -118.03428 | 14691 ft | 390 kts | 93° |
| 2026-05-04 02:06 | 33.64450 | -118.00146 | 15138 ft | 397 kts | 93° |
| 2026-05-04 02:06 | 33.64449 | -117.96815 | 15585 ft | 403 kts | 93° |
| 2026-05-04 02:06 | 33.64444 | -117.93423 | 16022 ft | 409 kts | 93° |
| 2026-05-04 02:07 | 33.64435 | -117.89979 | 16457 ft | 416 kts | 94° |
| 2026-05-04 02:07 | 33.64423 | -117.86482 | 16869 ft | 422 kts | 94° |
| 2026-05-04 02:07 | 33.64410 | -117.82944 | 16993 ft | 426 kts | 94° |
| 2026-05-04 02:07 | 33.64216 | -117.79414 | 17017 ft | 422 kts | 103° |
| 2026-05-04 02:08 | 33.63556 | -117.76009 | 17015 ft | 417 kts | 112° |
| 2026-05-04 02:08 | 33.62724 | -117.72665 | 17015 ft | 418 kts | 112° |
| 2026-05-04 02:08 | 33.61897 | -117.69324 | 17014 ft | 418 kts | 111° |
| 2026-05-04 02:08 | 33.61071 | -117.65980 | 17009 ft | 418 kts | 111° |
| 2026-05-04 02:09 | 33.60245 | -117.62629 | 17010 ft | 418 kts | 112° |
| 2026-05-04 02:09 | 33.59430 | -117.59328 | 17004 ft | 419 kts | 112° |
| 2026-05-04 02:09 | 33.58601 | -117.55975 | 17003 ft | 419 kts | 111° |
| 2026-05-04 02:09 | 33.57777 | -117.52627 | 16995 ft | 419 kts | 111° |
| 2026-05-04 02:10 | 33.56951 | -117.49269 | 16997 ft | 419 kts | 112° |
| 2026-05-04 02:10 | 33.56121 | -117.45923 | 17003 ft | 419 kts | 112° |
| 2026-05-04 02:10 | 33.55286 | -117.42570 | 16994 ft | 418 kts | 112° |
| 2026-05-04 02:10 | 33.54455 | -117.39227 | 16995 ft | 419 kts | 112° |
| 2026-05-04 02:11 | 33.53625 | -117.35879 | 17004 ft | 419 kts | 112° |
| 2026-05-04 02:11 | 33.52791 | -117.32534 | 17004 ft | 419 kts | 112° |
| 2026-05-04 02:11 | 33.51951 | -117.29183 | 17000 ft | 419 kts | 112° |
| 2026-05-04 02:11 | 33.51114 | -117.25842 | 17002 ft | 419 kts | 111° |
| 2026-05-04 02:12 | 33.50533 | -117.22395 | 17000 ft | 425 kts | 100° |
| 2026-05-04 02:12 | 33.50413 | -117.18838 | 16995 ft | 429 kts | 94° |
| 2026-05-04 02:12 | 33.50375 | -117.15265 | 16986 ft | 429 kts | 94° |
| 2026-05-04 02:12 | 33.50348 | -117.12905 | 16984 ft | 428 kts | 94° |
| 2026-05-04 02:13 | 33.50303 | -117.09336 | 16986 ft | 428 kts | 95° |
| 2026-05-04 02:13 | 33.50255 | -117.05776 | 16982 ft | 428 kts | 95° |
| 2026-05-04 02:13 | 33.50205 | -117.02207 | 16979 ft | 428 kts | 95° |
| 2026-05-04 02:13 | 33.50155 | -116.98640 | 16980 ft | 428 kts | 95° |
| 2026-05-04 02:14 | 33.50105 | -116.95083 | 16975 ft | 427 kts | 95° |
| 2026-05-04 02:14 | 33.50052 | -116.91519 | 16972 ft | 427 kts | 95° |
| 2026-05-04 02:14 | 33.49996 | -116.87962 | 16966 ft | 427 kts | 95° |
| 2026-05-04 02:14 | 33.49939 | -116.84405 | 16965 ft | 427 kts | 95° |
| 2026-05-04 02:15 | 33.49882 | -116.80841 | 16952 ft | 427 kts | 95° |
| 2026-05-04 02:15 | 33.49824 | -116.77288 | 16947 ft | 427 kts | 95° |
| 2026-05-04 02:15 | 33.49765 | -116.73726 | 16924 ft | 427 kts | 95° |
| 2026-05-04 02:15 | 33.49707 | -116.70174 | 16915 ft | 427 kts | 95° |
| 2026-05-04 02:16 | 33.49650 | -116.66622 | 16904 ft | 426 kts | 94° |
| 2026-05-04 02:16 | 33.49593 | -116.63073 | 16899 ft | 426 kts | 94° |
| 2026-05-04 02:16 | 33.49532 | -116.59536 | 16888 ft | 425 kts | 95° |
| 2026-05-04 02:16 | 33.49469 | -116.55993 | 16878 ft | 425 kts | 95° |
| 2026-05-04 02:17 | 33.49405 | -116.52451 | 16881 ft | 425 kts | 95° |
| 2026-05-04 02:17 | 33.49338 | -116.48920 | 16851 ft | 424 kts | 95° |
| 2026-05-04 02:17 | 33.49269 | -116.45392 | 16822 ft | 423 kts | 95° |
| 2026-05-04 02:17 | 33.49199 | -116.41868 | 16814 ft | 423 kts | 95° |
| 2026-05-04 02:18 | 33.49139 | -116.38346 | 16802 ft | 422 kts | 94° |
| 2026-05-04 02:18 | 33.49089 | -116.34837 | 16787 ft | 421 kts | 95° |
| 2026-05-04 02:18 | 33.49047 | -116.31336 | 16784 ft | 419 kts | 94° |
| 2026-05-04 02:18 | 33.49005 | -116.27879 | 17019 ft | 422 kts | 94° |
| 2026-05-04 02:19 | 33.48955 | -116.24339 | 17397 ft | 428 kts | 95° |
| 2026-05-04 02:19 | 33.48896 | -116.20706 | 17812 ft | 434 kts | 95° |
| 2026-05-04 02:19 | 33.48834 | -116.17116 | 18162 ft | 440 kts | 95° |
| 2026-05-04 02:19 | 33.48769 | -116.13435 | 18563 ft | 444 kts | 95° |
| 2026-05-04 02:20 | 33.48701 | -116.09730 | 18986 ft | 447 kts | 95° |
| 2026-05-04 02:20 | 33.48681 | -116.05993 | 19408 ft | 452 kts | 90° |
| 2026-05-04 02:20 | 33.49096 | -116.02229 | 19825 ft | 459 kts | 78° |
| 2026-05-04 02:20 | 33.50021 | -115.98552 | 20254 ft | 463 kts | 70° |
| 2026-05-04 02:21 | 33.51108 | -115.94904 | 20706 ft | 466 kts | 70° |
| 2026-05-04 02:21 | 33.52196 | -115.91234 | 21139 ft | 470 kts | 70° |
| 2026-05-04 02:21 | 33.53286 | -115.87526 | 21589 ft | 473 kts | 70° |
| 2026-05-04 02:21 | 33.54375 | -115.83796 | 22022 ft | 476 kts | 70° |
| 2026-05-04 02:22 | 33.55468 | -115.80032 | 22456 ft | 479 kts | 70° |
| 2026-05-04 02:22 | 33.56565 | -115.76241 | 22878 ft | 482 kts | 70° |
| 2026-05-04 02:22 | 33.57666 | -115.72426 | 23263 ft | 485 kts | 70° |
| 2026-05-04 02:22 | 33.58776 | -115.68589 | 23588 ft | 488 kts | 70° |
| 2026-05-04 02:23 | 33.59894 | -115.64738 | 23904 ft | 491 kts | 70° |
| 2026-05-04 02:23 | 33.61003 | -115.60837 | 24213 ft | 495 kts | 73° |
| 2026-05-04 02:23 | 33.61640 | -115.56772 | 24508 ft | 497 kts | 87° |
| 2026-05-04 02:23 | 33.61645 | -115.52629 | 24811 ft | 499 kts | 94° |
| 2026-05-04 02:24 | 33.61544 | -115.48454 | 25102 ft | 502 kts | 94° |
| 2026-05-04 02:24 | 33.61438 | -115.44249 | 25402 ft | 506 kts | 94° |
| 2026-05-04 02:24 | 33.61330 | -115.40022 | 25701 ft | 509 kts | 94° |
| 2026-05-04 02:24 | 33.61222 | -115.35772 | 26014 ft | 512 kts | 94° |
| 2026-05-04 02:25 | 33.61117 | -115.31488 | 26299 ft | 515 kts | 94° |
| 2026-05-04 02:25 | 33.61014 | -115.27239 | 26570 ft | 518 kts | 94° |
| 2026-05-04 02:25 | 33.60906 | -115.22906 | 26845 ft | 521 kts | 94° |
| 2026-05-04 02:25 | 33.60795 | -115.18557 | 27107 ft | 524 kts | 94° |
| 2026-05-04 02:26 | 33.60677 | -115.14167 | 27392 ft | 527 kts | 94° |
| 2026-05-04 02:26 | 33.60556 | -115.09771 | 27674 ft | 529 kts | 94° |
| 2026-05-04 02:26 | 33.60433 | -115.05344 | 27940 ft | 532 kts | 94° |
| 2026-05-04 02:26 | 33.60312 | -115.00895 | 28215 ft | 535 kts | 94° |
| 2026-05-04 02:27 | 33.60191 | -114.96418 | 28473 ft | 537 kts | 94° |
| 2026-05-04 02:27 | 33.60071 | -114.91929 | 28735 ft | 540 kts | 94° |
| 2026-05-04 02:27 | 33.59944 | -114.87417 | 28984 ft | 542 kts | 94° |
| 2026-05-04 02:27 | 33.59811 | -114.82881 | 29242 ft | 545 kts | 94° |
| 2026-05-04 02:28 | 33.59674 | -114.78333 | 29494 ft | 548 kts | 94° |
| 2026-05-04 02:28 | 33.59537 | -114.73755 | 29746 ft | 550 kts | 94° |
| 2026-05-04 02:28 | 33.59407 | -114.69155 | 29968 ft | 553 kts | 94° |
| 2026-05-04 02:28 | 33.59279 | -114.64521 | 30177 ft | 555 kts | 94° |
| 2026-05-04 02:29 | 33.58909 | -114.55377 | 30183 ft | 533 kts | 104° |
| 2026-05-04 02:29 | 33.58126 | -114.51124 | 30149 ft | 511 kts | 114° |
| 2026-05-04 02:29 | 33.56705 | -114.47421 | 30014 ft | 486 kts | 127° |
| 2026-05-04 02:30 | 33.55031 | -114.43834 | 29384 ft | 487 kts | 127° |
| 2026-05-04 02:30 | 33.53416 | -114.40365 | 28909 ft | 476 kts | 127° |
| 2026-05-04 02:30 | 33.52007 | -114.36791 | 28426 ft | 476 kts | 114° |
| 2026-05-04 02:30 | 33.51198 | -114.32966 | 27926 ft | 471 kts | 107° |
| 2026-05-04 02:31 | 33.50482 | -114.29164 | 27446 ft | 464 kts | 108° |
| 2026-05-04 02:31 | 33.49753 | -114.25434 | 26963 ft | 455 kts | 108° |
| 2026-05-04 02:31 | 33.49020 | -114.21779 | 26514 ft | 448 kts | 108° |
| 2026-05-04 02:31 | 33.48291 | -114.18184 | 26076 ft | 440 kts | 108° |
| 2026-05-04 02:32 | 33.47575 | -114.14657 | 25634 ft | 432 kts | 108° |
| 2026-05-04 02:32 | 33.46874 | -114.11181 | 25178 ft | 426 kts | 108° |
| 2026-05-04 02:32 | 33.46188 | -114.07758 | 24738 ft | 419 kts | 108° |
| 2026-05-04 02:32 | 33.45520 | -114.04406 | 24582 ft | 415 kts | 108° |
| 2026-05-04 02:33 | 33.44828 | -114.00977 | 24446 ft | 430 kts | 108° |
| 2026-05-04 02:33 | 33.44121 | -113.97474 | 24289 ft | 434 kts | 108° |
| 2026-05-04 02:33 | 33.43414 | -113.93961 | 24146 ft | 433 kts | 108° |
| 2026-05-04 02:33 | 33.42711 | -113.90452 | 24016 ft | 433 kts | 107° |
| 2026-05-04 02:34 | 33.42012 | -113.86960 | 23874 ft | 431 kts | 107° |
| 2026-05-04 02:34 | 33.41315 | -113.83482 | 23740 ft | 428 kts | 107° |
| 2026-05-04 02:34 | 33.40621 | -113.80028 | 23594 ft | 426 kts | 107° |
| 2026-05-04 02:34 | 33.39928 | -113.76583 | 23431 ft | 424 kts | 107° |
| 2026-05-04 02:35 | 33.39235 | -113.73157 | 23277 ft | 422 kts | 107° |
| 2026-05-04 02:35 | 33.38544 | -113.69748 | 23127 ft | 421 kts | 107° |
| 2026-05-04 02:35 | 33.37856 | -113.66352 | 22966 ft | 420 kts | 107° |
| 2026-05-04 02:35 | 33.37168 | -113.62959 | 22807 ft | 419 kts | 107° |
| 2026-05-04 02:36 | 33.36482 | -113.59578 | 22631 ft | 417 kts | 107° |
| 2026-05-04 02:36 | 33.35798 | -113.56218 | 22462 ft | 416 kts | 108° |
| 2026-05-04 02:36 | 33.35114 | -113.52864 | 22281 ft | 414 kts | 108° |
| 2026-05-04 02:36 | 33.34429 | -113.49521 | 22098 ft | 413 kts | 108° |
| 2026-05-04 02:37 | 33.33745 | -113.46194 | 21924 ft | 412 kts | 108° |
| 2026-05-04 02:37 | 33.33098 | -113.42860 | 21633 ft | 411 kts | 106° |
| 2026-05-04 02:37 | 33.32510 | -113.39525 | 21350 ft | 409 kts | 105° |
| 2026-05-04 02:37 | 33.31956 | -113.36195 | 21076 ft | 407 kts | 105° |
| 2026-05-04 02:38 | 33.31415 | -113.32879 | 20784 ft | 405 kts | 105° |
| 2026-05-04 02:38 | 33.30871 | -113.29584 | 20510 ft | 403 kts | 105° |
| 2026-05-04 02:38 | 33.30318 | -113.26317 | 20261 ft | 400 kts | 105° |
| 2026-05-04 02:38 | 33.29757 | -113.23064 | 20014 ft | 398 kts | 105° |
| 2026-05-04 02:39 | 33.29229 | -113.19820 | 19764 ft | 396 kts | 104° |
| 2026-05-04 02:39 | 33.28749 | -113.16587 | 19515 ft | 395 kts | 103° |
| 2026-05-04 02:39 | 33.28296 | -113.13356 | 19275 ft | 393 kts | 103° |
| 2026-05-04 02:39 | 33.27856 | -113.10142 | 19029 ft | 391 kts | 103° |
| 2026-05-04 02:40 | 33.27490 | -113.06925 | 18688 ft | 392 kts | 96° |
| 2026-05-04 02:40 | 33.27516 | -113.03721 | 18315 ft | 391 kts | 90° |
| 2026-05-04 02:40 | 33.27618 | -113.00439 | 17934 ft | 388 kts | 90° |
| 2026-05-04 02:40 | 33.27702 | -112.97272 | 17530 ft | 384 kts | 91° |
| 2026-05-04 02:41 | 33.27780 | -112.94096 | 17125 ft | 381 kts | 91° |
| 2026-05-04 02:41 | 33.27852 | -112.90935 | 16660 ft | 380 kts | 91° |
| 2026-05-04 02:41 | 33.27921 | -112.87790 | 16156 ft | 375 kts | 91° |
| 2026-05-04 02:41 | 33.27992 | -112.84707 | 15673 ft | 368 kts | 91° |
| 2026-05-04 02:42 | 33.28076 | -112.81688 | 15196 ft | 361 kts | 90° |
| 2026-05-04 02:42 | 33.28179 | -112.78721 | 14717 ft | 354 kts | 92° |
| 2026-05-04 02:42 | 33.28274 | -112.75798 | 14248 ft | 350 kts | 90° |
| 2026-05-04 02:42 | 33.28413 | -112.72912 | 13793 ft | 346 kts | 90° |
| 2026-05-04 02:43 | 33.28560 | -112.70056 | 13292 ft | 342 kts | 90° |
| 2026-05-04 02:43 | 33.28705 | -112.67241 | 12782 ft | 337 kts | 90° |
| 2026-05-04 02:43 | 33.28847 | -112.64470 | 12275 ft | 331 kts | 90° |
| 2026-05-04 02:43 | 33.28990 | -112.61747 | 11778 ft | 326 kts | 90° |
| 2026-05-04 02:44 | 33.29135 | -112.59056 | 11285 ft | 321 kts | 90° |
| 2026-05-04 02:44 | 33.29135 | -112.56424 | 10814 ft | 313 kts | 98° |
| 2026-05-04 02:44 | 33.28943 | -112.53854 | 10333 ft | 308 kts | 99° |
| 2026-05-04 02:44 | 33.28743 | -112.51384 | 10113 ft | 289 kts | 99° |
| 2026-05-04 02:45 | 33.28559 | -112.49056 | 9748 ft | 274 kts | 99° |
| 2026-05-04 02:45 | 33.28391 | -112.46854 | 9367 ft | 259 kts | 99° |
| 2026-05-04 02:45 | 33.28238 | -112.44742 | 8976 ft | 253 kts | 100° |
| 2026-05-04 02:45 | 33.28095 | -112.42659 | 8602 ft | 250 kts | 99° |
| 2026-05-04 02:46 | 33.27954 | -112.40588 | 8232 ft | 250 kts | 99° |
| 2026-05-04 02:46 | 33.27812 | -112.38522 | 7865 ft | 249 kts | 99° |
| 2026-05-04 02:46 | 33.27675 | -112.36466 | 7706 ft | 248 kts | 99° |
| 2026-05-04 02:46 | 33.27542 | -112.34411 | 7584 ft | 248 kts | 100° |
| 2026-05-04 02:47 | 33.27412 | -112.32358 | 7461 ft | 247 kts | 99° |
| 2026-05-04 02:47 | 33.27288 | -112.30342 | 7346 ft | 246 kts | 99° |
| 2026-05-04 02:47 | 33.27152 | -112.28281 | 7202 ft | 246 kts | 99° |
| 2026-05-04 02:47 | 33.27016 | -112.26264 | 7099 ft | 246 kts | 99° |
| 2026-05-04 02:48 | 33.26943 | -112.24230 | 6999 ft | 247 kts | 88° |
| 2026-05-04 02:48 | 33.27290 | -112.22198 | 7001 ft | 251 kts | 80° |
| 2026-05-04 02:48 | 33.27722 | -112.20165 | 7003 ft | 253 kts | 80° |
| 2026-05-04 02:48 | 33.28166 | -112.18132 | 6992 ft | 253 kts | 79° |
| 2026-05-04 02:49 | 33.28611 | -112.16101 | 6990 ft | 253 kts | 79° |
| 2026-05-04 02:49 | 33.29055 | -112.14066 | 6993 ft | 253 kts | 79° |
| 2026-05-04 02:49 | 33.29494 | -112.12031 | 6995 ft | 253 kts | 79° |
| 2026-05-04 02:49 | 33.29940 | -112.09999 | 6995 ft | 252 kts | 79° |
| 2026-05-04 02:50 | 33.30384 | -112.07972 | 6993 ft | 252 kts | 79° |
| 2026-05-04 02:50 | 33.30820 | -112.05940 | 6994 ft | 253 kts | 79° |
| 2026-05-04 02:50 | 33.31236 | -112.03906 | 6994 ft | 251 kts | 83° |
| 2026-05-04 02:50 | 33.31550 | -112.01852 | 6998 ft | 251 kts | 84° |
| 2026-05-04 02:51 | 33.31842 | -111.99797 | 6993 ft | 251 kts | 84° |
| 2026-05-04 02:51 | 33.32132 | -111.97738 | 6996 ft | 251 kts | 84° |
| 2026-05-04 02:51 | 33.32418 | -111.95673 | 6996 ft | 251 kts | 84° |
| 2026-05-04 02:51 | 33.32701 | -111.93618 | 7028 ft | 250 kts | 84° |
| 2026-05-04 02:52 | 33.32983 | -111.91562 | 7029 ft | 252 kts | 84° |
| 2026-05-04 02:52 | 33.33267 | -111.89496 | 7035 ft | 252 kts | 84° |
| 2026-05-04 02:52 | 33.33551 | -111.87416 | 6598 ft | 257 kts | 84° |
| 2026-05-04 02:52 | 33.33895 | -111.85304 | 6028 ft | 261 kts | 80° |
| 2026-05-04 02:53 | 33.34312 | -111.83167 | 5438 ft | 266 kts | 79° |
| 2026-05-04 02:53 | 33.34753 | -111.81015 | 4925 ft | 265 kts | 77° |
| 2026-05-04 02:53 | 33.35315 | -111.78940 | 4539 ft | 261 kts | 71° |
| 2026-05-04 02:53 | 33.35986 | -111.76947 | 4141 ft | 256 kts | 69° |
| 2026-05-04 02:54 | 33.36653 | -111.75020 | 3853 ft | 243 kts | 69° |
| 2026-05-04 02:54 | 33.37549 | -111.73414 | 3601 ft | 227 kts | 39° |
| 2026-05-04 02:54 | 33.38822 | -111.72449 | 3460 ft | 210 kts | 14° |
| 2026-05-04 02:54 | 33.40234 | -111.72339 | 3341 ft | 202 kts | 349° |
| 2026-05-04 02:55 | 33.42305 | -111.73974 | 3142 ft | 170 kts | 303° |
| 2026-05-04 02:55 | 33.42999 | -111.75086 | 3117 ft | 164 kts | 296° |
| 2026-05-04 02:55 | 33.43478 | -111.76269 | 3383 ft | 153 kts | 282° |
| 2026-05-04 02:56 | 33.43721 | -111.77528 | 3365 ft | 157 kts | 276° |
| 2026-05-04 02:56 | 33.43920 | -111.78837 | 3339 ft | 157 kts | 275° |
| 2026-05-04 02:56 | 33.44077 | -111.80100 | 3321 ft | 150 kts | 271° |
| 2026-05-04 02:56 | 33.44205 | -111.81302 | 3299 ft | 143 kts | 271° |
| 2026-05-04 02:57 | 33.44321 | -111.82476 | 3272 ft | 141 kts | 268° |
| 2026-05-04 02:57 | 33.44329 | -111.83645 | 3249 ft | 139 kts | 263° |
| 2026-05-04 02:57 | 33.44257 | -111.84799 | 3170 ft | 140 kts | 264° |
| 2026-05-04 02:57 | 33.44172 | -111.85946 | 2983 ft | 139 kts | 262° |
| 2026-05-04 02:58 | 33.44118 | -111.87108 | 2833 ft | 140 kts | 264° |
| 2026-05-04 02:58 | 33.44106 | -111.88266 | 2687 ft | 137 kts | 267° |
| 2026-05-04 02:58 | 33.44109 | -111.89396 | 2554 ft | 135 kts | 268° |
| 2026-05-04 02:58 | 33.44130 | -111.90518 | 2419 ft | 134 kts | 268° |
| 2026-05-04 02:59 | 33.44130 | -111.91632 | 2317 ft | 134 kts | 265° |
| 2026-05-04 02:59 | 33.44122 | -111.92755 | 2228 ft | 137 kts | 263° |
| 2026-05-04 02:59 | 33.44114 | -111.93525 | 2124 ft | 138 kts | 263° |
| 2026-05-04 02:59 | 33.44132 | -111.94683 | 2007 ft | 140 kts | 264° |
| 2026-05-04 03:00 | 33.44083 | -111.95840 | 1818 ft | 139 kts | 264° |
| 2026-05-04 03:00 | 33.44095 | -111.97005 | 1623 ft | 141 kts | 269° |
| 2026-05-04 03:00 | 33.44113 | -111.98175 | 1470 ft | 137 kts | 260° |
| 2026-05-04 03:00 | 33.44014 | -111.99320 | 1150 ft | 138 kts | 260° |